Time;durP1;ratioP1;P1;durP2;ratioP2;P2;SDS_P1;SDS_P2;PMS_P1;PMS_P2;Temp;Humidity;BMP_temperature;BMP_pressure;BME280_temperature;BME280_humidity;BME280_pressure;Samples;Min_cycle;Max_cycle;Signal;HPM_P1;HPM_P2
2021/10/19 00:01:26;;;;;;;6.18;2.97;;;;;;;;;;5031636;28;20029;-64
2021/10/19 00:03:52;;;;;;;5.57;2.65;;;;;;;;;;5031695;28;20021;-64
2021/10/19 00:06:18;;;;;;;5.60;3.00;;;;;;;;;;5030477;28;20034;-64
2021/10/19 00:08:44;;;;;;;5.28;2.78;;;;;;;;;;5032096;28;20029;-64
2021/10/19 00:11:11;;;;;;;5.93;2.83;;;;;;;;;;5033982;28;20108;-65
2021/10/19 00:13:37;;;;;;;5.95;3.20;;;;;;;;;;5035589;28;20053;-64
2021/10/19 00:16:06;;;;;;;4.90;2.65;;;;;;;;;;5041895;28;20020;-64
2021/10/19 00:18:33;;;;;;;4.38;2.67;;;;;;;;;;5035676;28;20030;-65
2021/10/19 00:20:59;;;;;;;6.63;3.13;;;;;;;;;;5035514;28;20017;-64
2021/10/19 00:23:25;;;;;;;6.50;2.92;;;;;;;;;;5035319;28;20160;-64
2021/10/19 00:25:51;;;;;;;6.10;2.90;;;;;;;;;;5035815;28;20384;-64
2021/10/19 00:28:17;;;;;;;5.80;3.00;;;;;;;;;;5033725;28;20431;-64
2021/10/19 00:30:43;;;;;;;6.43;2.90;;;;;;;;;;5035314;28;20026;-64
2021/10/19 00:33:09;;;;;;;6.35;2.78;;;;;;;;;;5035210;28;20022;-64
2021/10/19 00:35:35;;;;;;;5.05;2.67;;;;;;;;;;5033910;28;20029;-64
2021/10/19 00:38:01;;;;;;;5.72;3.20;;;;;;;;;;5035094;28;20022;-64
2021/10/19 00:40:27;;;;;;;7.00;3.10;;;;;;;;;;5034998;28;20025;-64
2021/10/19 00:42:53;;;;;;;6.57;2.80;;;;;;;;;;5035644;28;20405;-65
2021/10/19 00:45:19;;;;;;;6.72;2.90;;;;;;;;;;5034768;28;20048;-64
2021/10/19 00:47:51;;;;;;;6.13;2.85;;;;;;;;;;5034951;28;20025;-63
2021/10/19 00:50:18;;;;;;;5.68;3.08;;;;;;;;;;5033455;28;20083;-64
2021/10/19 00:52:45;;;;;;;6.57;3.00;;;;;;;;;;5052907;28;20025;-63
2021/10/19 00:55:12;;;;;;;5.68;3.13;;;;;;;;;;5054749;28;20426;-64
2021/10/19 00:57:38;;;;;;;5.97;2.90;;;;;;;;;;5054648;28;20032;-65
2021/10/19 01:00:05;;;;;;;6.47;3.25;;;;;;;;;;5052462;28;20029;-64
2021/10/19 01:02:31;;;;;;;7.75;3.13;;;;;;;;;;5053573;28;20081;-64
2021/10/19 01:04:57;;;;;;;7.47;3.42;;;;;;;;;;5053442;28;20078;-64
2021/10/19 01:07:23;;;;;;;7.38;3.00;;;;;;;;;;5054558;28;20025;-65
2021/10/19 01:09:49;;;;;;;6.45;2.80;;;;;;;;;;5034145;28;20030;-65
2021/10/19 01:12:16;;;;;;;6.60;3.38;;;;;;;;;;5034427;28;20021;-65
2021/10/19 01:14:42;;;;;;;5.75;3.10;;;;;;;;;;5034603;28;20028;-65
2021/10/19 01:17:08;;;;;;;5.20;2.60;;;;;;;;;;5042045;28;20496;-65
2021/10/19 01:19:35;;;;;;;4.82;2.88;;;;;;;;;;5034492;28;20025;-65
2021/10/19 01:22:02;;;;;;;5.53;2.95;;;;;;;;;;5033997;28;20032;-64
2021/10/19 01:24:28;;;;;;;6.20;2.90;;;;;;;;;;5034378;28;20482;-64
2021/10/19 01:26:54;;;;;;;5.55;2.83;;;;;;;;;;5034402;28;20755;-64
2021/10/19 01:29:20;;;;;;;5.30;2.72;;;;;;;;;;5033928;28;20033;-63
2021/10/19 01:31:47;;;;;;;9.13;3.22;;;;;;;;;;5034096;28;20056;-63
2021/10/19 01:34:14;;;;;;;5.57;3.03;;;;;;;;;;5034868;28;20101;-63
2021/10/19 01:36:40;;;;;;;6.85;2.67;;;;;;;;;;5034220;28;20029;-63
2021/10/19 01:39:06;;;;;;;5.88;3.05;;;;;;;;;;5034038;28;20029;-63
2021/10/19 01:41:33;;;;;;;5.55;3.10;;;;;;;;;;5033905;28;20022;-63
2021/10/19 01:43:59;;;;;;;5.80;2.83;;;;;;;;;;5033639;28;20029;-63
2021/10/19 01:46:25;;;;;;;6.28;3.00;;;;;;;;;;5033820;28;20020;-65
2021/10/19 01:48:51;;;;;;;5.15;2.78;;;;;;;;;;5033535;28;20060;-64
2021/10/19 01:51:17;;;;;;;4.88;2.88;;;;;;;;;;5034329;28;20025;-66
2021/10/19 01:53:45;;;;;;;7.13;2.67;;;;;;;;;;5033928;28;20022;-64
2021/10/19 01:56:11;;;;;;;6.95;2.67;;;;;;;;;;5033721;28;20017;-63
2021/10/19 01:58:37;;;;;;;8.23;2.85;;;;;;;;;;5033758;28;20465;-63
2021/10/19 02:01:04;;;;;;;13.35;2.63;;;;;;;;;;5032323;28;20083;-63
2021/10/19 02:03:30;;;;;;;7.80;3.10;;;;;;;;;;5033655;28;20096;-62
2021/10/19 02:05:56;;;;;;;6.78;3.15;;;;;;;;;;5033548;28;20030;-63
2021/10/19 02:08:22;;;;;;;5.05;2.58;;;;;;;;;;5032586;28;20479;-62
2021/10/19 02:10:48;;;;;;;6.97;2.50;;;;;;;;;;5015772;28;20342;-63
2021/10/19 02:13:14;;;;;;;6.47;2.67;;;;;;;;;;5033195;28;20018;-63
2021/10/19 02:15:40;;;;;;;6.68;2.70;;;;;;;;;;5034257;28;20017;-63
2021/10/19 02:18:07;;;;;;;5.72;2.97;;;;;;;;;;5033359;28;20117;-63
2021/10/19 02:20:34;;;;;;;5.68;2.33;;;;;;;;;;5033129;28;20045;-64
2021/10/19 02:23:00;;;;;;;5.85;2.63;;;;;;;;;;5033046;28;20187;-63
2021/10/19 02:25:27;;;;;;;5.68;2.95;;;;;;;;;;5033925;28;20029;-63
2021/10/19 02:27:53;;;;;;;6.93;2.35;;;;;;;;;;5033051;28;20048;-64
2021/10/19 02:30:20;;;;;;;4.25;2.30;;;;;;;;;;5032672;28;20443;-62
2021/10/19 02:32:46;;;;;;;6.55;2.67;;;;;;;;;;5031977;28;20451;-65
2021/10/19 02:35:14;;;;;;;6.75;2.70;;;;;;;;;;5032709;28;20023;-64
2021/10/19 02:37:40;;;;;;;8.27;2.38;;;;;;;;;;5032837;28;20076;-64
2021/10/19 02:40:08;;;;;;;10.82;3.10;;;;;;;;;;5032620;28;20021;-64
2021/10/19 02:42:34;;;;;;;5.18;2.70;;;;;;;;;;5035494;28;20024;-64
2021/10/19 02:45:02;;;;;;;7.80;2.53;;;;;;;;;;5051839;28;20020;-66
2021/10/19 02:47:28;;;;;;;5.25;2.42;;;;;;;;;;5052420;28;20466;-63
2021/10/19 02:49:54;;;;;;;7.38;2.70;;;;;;;;;;5051790;28;20128;-63
2021/10/19 02:52:20;;;;;;;5.70;3.00;;;;;;;;;;5037253;28;20022;-62
2021/10/19 02:54:47;;;;;;;8.70;2.60;;;;;;;;;;5032388;28;20026;-65
2021/10/19 02:57:13;;;;;;;5.88;2.58;;;;;;;;;;5032274;28;20027;-63
2021/10/19 02:59:39;;;;;;;5.75;2.75;;;;;;;;;;5032381;28;20095;-63
2021/10/19 03:02:05;;;;;;;4.70;2.38;;;;;;;;;;5031936;28;20021;-63
2021/10/19 03:04:31;;;;;;;5.38;2.40;;;;;;;;;;5050590;28;20078;-63
2021/10/19 03:06:57;;;;;;;5.50;2.70;;;;;;;;;;5051793;28;20032;-63
2021/10/19 03:09:23;;;;;;;5.22;2.67;;;;;;;;;;5051842;28;20037;-64
2021/10/19 03:11:49;;;;;;;5.47;2.40;;;;;;;;;;5052016;28;20036;-65
2021/10/19 03:14:15;;;;;;;5.88;2.65;;;;;;;;;;5051753;28;20025;-63
2021/10/19 03:16:41;;;;;;;5.00;2.28;;;;;;;;;;5051798;28;20028;-63
2021/10/19 03:19:07;;;;;;;5.40;2.63;;;;;;;;;;5048268;28;20025;-63
2021/10/19 03:21:33;;;;;;;4.75;2.58;;;;;;;;;;5048473;28;20028;-64
2021/10/19 03:23:59;;;;;;;4.47;2.50;;;;;;;;;;5045362;28;20408;-63
2021/10/19 03:26:25;;;;;;;5.82;2.63;;;;;;;;;;5031715;28;20071;-64
2021/10/19 03:28:51;;;;;;;6.30;2.80;;;;;;;;;;5041912;28;20024;-64
2021/10/19 03:31:17;;;;;;;5.90;2.72;;;;;;;;;;5051543;28;20074;-63
2021/10/19 03:33:43;;;;;;;4.53;2.30;;;;;;;;;;5051817;28;20029;-63
2021/10/19 03:36:10;;;;;;;5.13;2.70;;;;;;;;;;5049476;28;20035;-62
2021/10/19 03:38:37;;;;;;;5.75;2.80;;;;;;;;;;5047391;28;20464;-62
2021/10/19 03:41:03;;;;;;;5.00;2.53;;;;;;;;;;5051394;28;20025;-64
2021/10/19 03:43:30;;;;;;;5.10;2.28;;;;;;;;;;5051154;28;20020;-63
2021/10/19 03:45:56;;;;;;;5.00;2.58;;;;;;;;;;5051259;28;20613;-62
2021/10/19 03:48:22;;;;;;;4.35;2.20;;;;;;;;;;5051344;28;20033;-64
2021/10/19 03:50:48;;;;;;;4.68;2.30;;;;;;;;;;5051761;28;20142;-63
2021/10/19 03:53:15;;;;;;;5.43;2.15;;;;;;;;;;5050178;28;20021;-63
2021/10/19 03:55:43;;;;;;;5.05;2.42;;;;;;;;;;5051213;28;20028;-64
2021/10/19 03:58:09;;;;;;;3.97;2.30;;;;;;;;;;5047993;28;20021;-63
2021/10/19 04:00:35;;;;;;;4.63;2.33;;;;;;;;;;5051054;28;20017;-63
2021/10/19 04:03:02;;;;;;;4.60;2.22;;;;;;;;;;5049970;28;20079;-66
2021/10/19 04:05:28;;;;;;;6.15;2.55;;;;;;;;;;5050922;28;20033;-62
2021/10/19 04:07:54;;;;;;;4.88;2.22;;;;;;;;;;5051582;28;20056;-62
2021/10/19 04:10:21;;;;;;;5.53;2.40;;;;;;;;;;5051155;28;20381;-64
2021/10/19 04:12:47;;;;;;;4.85;2.45;;;;;;;;;;5051298;28;20530;-64
2021/10/19 04:15:14;;;;;;;6.65;2.58;;;;;;;;;;5051143;28;20029;-63
2021/10/19 04:17:40;;;;;;;3.75;2.10;;;;;;;;;;5051007;28;20021;-64
2021/10/19 04:20:06;;;;;;;4.53;2.38;;;;;;;;;;5051405;28;20036;-63
2021/10/19 04:22:34;;;;;;;5.72;2.22;;;;;;;;;;5049875;28;20128;-63
2021/10/19 04:25:00;;;;;;;4.57;2.13;;;;;;;;;;5048064;28;20028;-62
2021/10/19 04:27:26;;;;;;;4.82;2.38;;;;;;;;;;5031872;28;20026;-62
2021/10/19 04:29:52;;;;;;;7.05;2.55;;;;;;;;;;5030868;28;20474;-66
2021/10/19 04:32:18;;;;;;;4.20;2.30;;;;;;;;;;5030839;28;20591;-64
2021/10/19 04:34:45;;;;;;;5.45;2.53;;;;;;;;;;5030964;28;20030;-64
2021/10/19 04:37:11;;;;;;;5.60;2.15;;;;;;;;;;5030974;28;20389;-63
2021/10/19 04:39:37;;;;;;;4.85;2.15;;;;;;;;;;5031051;28;20025;-64
2021/10/19 04:42:03;;;;;;;5.50;2.10;;;;;;;;;;5032319;28;20104;-63
2021/10/19 04:44:31;;;;;;;5.35;2.35;;;;;;;;;;5049939;28;20044;-64
2021/10/19 04:46:57;;;;;;;5.07;2.40;;;;;;;;;;5040044;28;20022;-64
2021/10/19 04:49:23;;;;;;;5.45;2.47;;;;;;;;;;5030730;28;20119;-63
2021/10/19 04:51:49;;;;;;;4.30;2.33;;;;;;;;;;5031077;28;20022;-63
2021/10/19 04:54:15;;;;;;;4.30;2.47;;;;;;;;;;5031100;28;20101;-63
2021/10/19 04:56:41;;;;;;;4.95;2.60;;;;;;;;;;5032157;28;20025;-64
2021/10/19 04:59:07;;;;;;;4.70;2.38;;;;;;;;;;5033156;28;20025;-64
2021/10/19 05:01:33;;;;;;;3.80;2.03;;;;;;;;;;5034463;28;20018;-64
2021/10/19 05:03:59;;;;;;;4.80;2.40;;;;;;;;;;5034124;28;20100;-64
2021/10/19 05:06:25;;;;;;;6.60;2.72;;;;;;;;;;5036857;28;20029;-63
2021/10/19 05:08:52;;;;;;;4.00;2.15;;;;;;;;;;5034419;28;20032;-63
2021/10/19 05:11:18;;;;;;;5.63;2.85;;;;;;;;;;5032823;28;20389;-63
2021/10/19 05:13:44;;;;;;;4.20;1.98;;;;;;;;;;5034188;28;20075;-64
2021/10/19 05:16:10;;;;;;;5.28;2.30;;;;;;;;;;5034647;28;20482;-64
2021/10/19 05:18:36;;;;;;;7.53;2.20;;;;;;;;;;5034722;28;20048;-63
2021/10/19 05:21:05;;;;;;;4.75;2.38;;;;;;;;;;5034523;28;20017;-63
2021/10/19 05:23:31;;;;;;;5.00;2.10;;;;;;;;;;5036623;28;20022;-66
2021/10/19 05:25:57;;;;;;;4.68;2.20;;;;;;;;;;5053023;28;20056;-64
2021/10/19 05:28:23;;;;;;;5.65;2.72;;;;;;;;;;5054011;28;20021;-63
2021/10/19 05:30:49;;;;;;;4.72;2.30;;;;;;;;;;5054196;28;20025;-65
2021/10/19 05:33:15;;;;;;;10.65;2.75;;;;;;;;;;5054196;28;20044;-63
2021/10/19 05:35:41;;;;;;;5.28;2.40;;;;;;;;;;5054573;28;20029;-64
2021/10/19 05:38:07;;;;;;;4.32;2.20;;;;;;;;;;5054255;28;20017;-64
2021/10/19 05:40:33;;;;;;;7.78;2.67;;;;;;;;;;5053914;28;20021;-63
2021/10/19 05:42:59;;;;;;;4.13;2.00;;;;;;;;;;5054011;28;20025;-63
2021/10/19 05:45:25;;;;;;;6.15;2.08;;;;;;;;;;5053903;28;20487;-63
2021/10/19 05:47:51;;;;;;;4.90;2.25;;;;;;;;;;5054041;28;20017;-63
2021/10/19 05:50:18;;;;;;;4.90;2.58;;;;;;;;;;5053980;28;20110;-63
2021/10/19 05:52:44;;;;;;;5.45;2.70;;;;;;;;;;5054070;28;20017;-63
2021/10/19 05:55:11;;;;;;;5.43;2.63;;;;;;;;;;5053921;28;20032;-63
2021/10/19 05:57:38;;;;;;;6.85;2.70;;;;;;;;;;5053710;28;20025;-63
2021/10/19 06:00:05;;;;;;;5.55;2.80;;;;;;;;;;5053668;28;20086;-64
2021/10/19 06:02:31;;;;;;;6.93;2.85;;;;;;;;;;5053780;28;20036;-63
2021/10/19 06:04:57;;;;;;;6.13;3.20;;;;;;;;;;5053693;28;20119;-64
2021/10/19 06:07:23;;;;;;;5.05;2.60;;;;;;;;;;5053728;28;20098;-64
2021/10/19 06:09:49;;;;;;;7.72;3.03;;;;;;;;;;5053267;28;20029;-63
2021/10/19 06:12:16;;;;;;;6.03;2.83;;;;;;;;;;5053426;28;20100;-63
2021/10/19 06:14:42;;;;;;;6.93;2.50;;;;;;;;;;5053125;28;20383;-64
2021/10/19 06:17:08;;;;;;;6.85;2.78;;;;;;;;;;5053172;28;20041;-64
2021/10/19 06:19:35;;;;;;;6.88;2.90;;;;;;;;;;5051920;28;20451;-65
2021/10/19 06:22:01;;;;;;;5.00;2.58;;;;;;;;;;5053433;28;20021;-65
2021/10/19 06:24:27;;;;;;;6.55;2.60;;;;;;;;;;5053331;28;20074;-65
2021/10/19 06:26:53;;;;;;;6.45;3.00;;;;;;;;;;5051973;28;20025;-65
2021/10/19 06:29:19;;;;;;;5.30;2.85;;;;;;;;;;5052883;28;20131;-63
2021/10/19 06:31:45;;;;;;;6.57;2.95;;;;;;;;;;5053050;28;20021;-64
2021/10/19 06:34:11;;;;;;;8.80;2.80;;;;;;;;;;5049387;28;20029;-64
2021/10/19 06:36:38;;;;;;;5.65;2.80;;;;;;;;;;5052909;28;20025;-63
2021/10/19 06:39:04;;;;;;;7.60;3.00;;;;;;;;;;5053007;28;20017;-63
2021/10/19 06:41:31;;;;;;;8.52;3.70;;;;;;;;;;5052792;28;20071;-63
2021/10/19 06:43:57;;;;;;;9.20;3.78;;;;;;;;;;5052944;28;20028;-63
2021/10/19 06:46:23;;;;;;;7.00;3.30;;;;;;;;;;5052857;28;20009;-65
2021/10/19 06:48:49;;;;;;;10.60;3.72;;;;;;;;;;5052487;28;20080;-63
2021/10/19 06:51:15;;;;;;;9.95;3.25;;;;;;;;;;5052530;28;20048;-63
2021/10/19 06:53:41;;;;;;;7.03;3.70;;;;;;;;;;5052735;28;20606;-63
2021/10/19 06:56:08;;;;;;;8.68;3.80;;;;;;;;;;5048811;28;20036;-63
2021/10/19 06:58:34;;;;;;;8.82;3.90;;;;;;;;;;5063121;28;20032;-63
2021/10/19 07:01:02;;;;;;;8.05;4.18;;;;;;;;;;5072858;28;20052;-64
2021/10/19 07:03:28;;;;;;;6.30;3.45;;;;;;;;;;5071329;28;20033;-62
2021/10/19 07:05:54;;;;;;;7.13;3.20;;;;;;;;;;5072426;28;20561;-63
2021/10/19 07:08:22;;;;;;;8.35;3.45;;;;;;;;;;5072381;28;20029;-64
2021/10/19 07:10:48;;;;;;;5.57;2.97;;;;;;;;;;5072476;28;20024;-63
2021/10/19 07:13:21;;;;;;;8.13;3.65;;;;;;;;;;5065313;28;20021;-63
2021/10/19 07:15:47;;;;;;;7.10;3.55;;;;;;;;;;5051341;28;20518;-64
2021/10/19 07:18:13;;;;;;;6.45;3.35;;;;;;;;;;5052175;28;20036;-65
2021/10/19 07:20:39;;;;;;;7.65;3.40;;;;;;;;;;5051872;28;20108;-64
2021/10/19 07:23:05;;;;;;;6.40;3.40;;;;;;;;;;5050767;28;20017;-63
2021/10/19 07:25:32;;;;;;;6.82;2.95;;;;;;;;;;5052131;28;20116;-63
2021/10/19 07:27:58;;;;;;;5.78;3.03;;;;;;;;;;5052241;28;20043;-64
2021/10/19 07:30:24;;;;;;;7.28;3.47;;;;;;;;;;5052083;28;20484;-64
2021/10/19 07:32:50;;;;;;;8.57;3.40;;;;;;;;;;5045463;28;20028;-64
2021/10/19 07:35:18;;;;;;;5.90;3.00;;;;;;;;;;5052094;28;20027;-65
2021/10/19 07:37:44;;;;;;;8.02;3.45;;;;;;;;;;5052106;28;20013;-64
2021/10/19 07:40:12;;;;;;;6.63;3.67;;;;;;;;;;5051824;28;20017;-64
2021/10/19 07:42:38;;;;;;;5.63;3.40;;;;;;;;;;5051619;28;20430;-64
2021/10/19 07:45:05;;;;;;;8.82;3.50;;;;;;;;;;5050616;28;20104;-64
2021/10/19 07:47:31;;;;;;;8.95;3.47;;;;;;;;;;5051599;28;20510;-64
2021/10/19 07:49:57;;;;;;;6.18;3.25;;;;;;;;;;5051528;28;20080;-64
2021/10/19 07:52:23;;;;;;;9.77;3.97;;;;;;;;;;5052016;28;20025;-64
2021/10/19 07:54:49;;;;;;;5.97;3.58;;;;;;;;;;5051833;28;20025;-64
2021/10/19 07:57:15;;;;;;;10.50;3.50;;;;;;;;;;5051654;28;20021;-65
2021/10/19 07:59:41;;;;;;;8.98;3.50;;;;;;;;;;5051689;28;20025;-64
2021/10/19 08:02:07;;;;;;;19.08;3.53;;;;;;;;;;5051359;28;20602;-65
2021/10/19 08:04:34;;;;;;;11.90;3.35;;;;;;;;;;5051943;28;20021;-64
2021/10/19 08:07:00;;;;;;;8.70;3.90;;;;;;;;;;5052050;28;20108;-67
2021/10/19 08:09:26;;;;;;;8.85;3.63;;;;;;;;;;5051881;28;20033;-64
2021/10/19 08:11:52;;;;;;;8.73;3.95;;;;;;;;;;5051938;28;20132;-64
2021/10/19 08:14:18;;;;;;;13.10;4.40;;;;;;;;;;5051857;28;20546;-65
2021/10/19 08:16:45;;;;;;;6.57;3.80;;;;;;;;;;5051790;28;20025;-65
2021/10/19 08:19:11;;;;;;;6.55;3.40;;;;;;;;;;5051357;28;20029;-64
2021/10/19 08:21:37;;;;;;;8.25;3.92;;;;;;;;;;5051252;28;20530;-64
2021/10/19 08:24:03;;;;;;;7.70;3.70;;;;;;;;;;5052990;28;20017;-64
2021/10/19 08:26:30;;;;;;;8.55;3.92;;;;;;;;;;5054715;28;20025;-63
2021/10/19 08:28:57;;;;;;;8.27;3.90;;;;;;;;;;5049862;28;20035;-65
2021/10/19 08:31:23;;;;;;;7.28;3.90;;;;;;;;;;5052753;28;20031;-65
2021/10/19 08:33:50;;;;;;;8.95;4.47;;;;;;;;;;5055462;28;20017;-65
2021/10/19 08:36:17;;;;;;;9.43;4.65;;;;;;;;;;5054029;28;20029;-65
2021/10/19 08:38:45;;;;;;;8.05;4.30;;;;;;;;;;5055275;28;20032;-65
2021/10/19 08:41:14;;;;;;;6.95;3.85;;;;;;;;;;5055332;28;20361;-65
2021/10/19 08:43:40;;;;;;;11.35;3.60;;;;;;;;;;5055166;28;20369;-65
2021/10/19 08:46:11;;;;;;;7.05;3.33;;;;;;;;;;5053130;28;20591;-65
2021/10/19 08:48:38;;;;;;;7.30;3.50;;;;;;;;;;5035056;28;20401;-65
2021/10/19 08:51:05;;;;;;;9.77;4.10;;;;;;;;;;5034993;28;20033;-64
2021/10/19 08:53:31;;;;;;;7.32;3.53;;;;;;;;;;5035263;28;20115;-63
2021/10/19 08:55:57;;;;;;;7.85;3.50;;;;;;;;;;5035075;28;20029;-64
2021/10/19 08:58:23;;;;;;;6.57;3.10;;;;;;;;;;5043304;28;20040;-63
2021/10/19 09:00:50;;;;;;;6.82;3.42;;;;;;;;;;5054936;28;20551;-65
2021/10/19 09:03:22;;;;;;;10.93;3.72;;;;;;;;;;5054009;28;20033;-64
2021/10/19 09:05:49;;;;;;;8.77;3.33;;;;;;;;;;5054879;28;20021;-66
2021/10/19 09:08:18;;;;;;;7.53;3.17;;;;;;;;;;5053685;28;20044;-66
2021/10/19 09:10:45;;;;;;;7.07;3.58;;;;;;;;;;5054600;28;20056;-65
2021/10/19 09:13:15;;;;;;;8.13;3.88;;;;;;;;;;5054776;28;20079;-65
2021/10/19 09:15:43;;;;;;;8.00;2.97;;;;;;;;;;5054745;28;20617;-65
2021/10/19 09:18:10;;;;;;;6.50;3.53;;;;;;;;;;5053394;28;20025;-65
2021/10/19 09:20:39;;;;;;;8.10;3.40;;;;;;;;;;5054484;28;20025;-66
2021/10/19 09:23:06;;;;;;;6.95;3.28;;;;;;;;;;5054616;28;20064;-65
2021/10/19 09:25:39;;;;;;;6.97;3.60;;;;;;;;;;5035648;28;20025;-65
2021/10/19 09:28:07;;;;;;;9.50;3.60;;;;;;;;;;5039721;28;20090;-64
2021/10/19 09:30:38;;;;;;;7.90;3.85;;;;;;;;;;5067718;28;20071;-65
2021/10/19 09:33:06;;;;;;;8.27;3.22;;;;;;;;;;5059744;28;20073;-66
2021/10/19 09:35:33;;;;;;;7.30;3.60;;;;;;;;;;5054213;28;20025;-67
2021/10/19 09:37:59;;;;;;;6.85;3.40;;;;;;;;;;5054155;28;20472;-67
2021/10/19 09:40:32;;;;;;;6.68;3.40;;;;;;;;;;5054187;28;20033;-66
2021/10/19 09:43:00;;;;;;;6.35;3.15;;;;;;;;;;5053936;28;20025;-66
2021/10/19 09:45:26;;;;;;;6.38;2.90;;;;;;;;;;5052804;28;20084;-64
2021/10/19 09:47:53;;;;;;;5.72;3.05;;;;;;;;;;5052853;28;20670;-66
2021/10/19 09:50:21;;;;;;;6.07;2.85;;;;;;;;;;5050202;28;20068;-65
2021/10/19 09:52:47;;;;;;;6.28;3.03;;;;;;;;;;5052814;28;20376;-66
2021/10/19 09:55:14;;;;;;;7.25;3.45;;;;;;;;;;5053865;28;20025;-65
2021/10/19 09:57:42;;;;;;;9.70;3.20;;;;;;;;;;5053702;28;20017;-66
2021/10/19 10:00:09;;;;;;;6.65;3.35;;;;;;;;;;5053678;28;20517;-67
2021/10/19 10:02:39;;;;;;;6.65;3.20;;;;;;;;;;5052366;28;20036;-64
2021/10/19 10:05:06;;;;;;;6.10;2.75;;;;;;;;;;5053712;28;20388;-65
2021/10/19 10:07:36;;;;;;;6.60;3.38;;;;;;;;;;5053584;28;20032;-65
2021/10/19 10:10:03;;;;;;;4.60;2.63;;;;;;;;;;5053410;28;20083;-65
2021/10/19 10:12:33;;;;;;;8.10;3.20;;;;;;;;;;5053642;28;20017;-66
2021/10/19 10:14:59;;;;;;;5.13;2.70;;;;;;;;;;5052268;28;20028;-66
2021/10/19 10:17:25;;;;;;;5.55;3.08;;;;;;;;;;5053243;28;20028;-67
2021/10/19 10:19:52;;;;;;;5.60;2.67;;;;;;;;;;5052059;28;20054;-65
2021/10/19 10:22:30;;;;;;;4.72;2.75;;;;;;;;;;5052153;28;20043;-66
2021/10/19 10:25:06;;;;;;;5.32;2.47;;;;;;;;;;5047098;28;20067;-66
2021/10/19 10:27:32;;;;;;;6.68;3.25;;;;;;;;;;5053326;28;20441;-66
2021/10/19 10:29:58;;;;;;;5.53;2.90;;;;;;;;;;5052043;28;20040;-65
2021/10/19 10:32:27;;;;;;;6.25;2.63;;;;;;;;;;5053420;28;20017;-66
2021/10/19 10:35:02;;;;;;;6.18;3.00;;;;;;;;;;5053169;28;20024;-66
2021/10/19 10:37:55;;;;;;;5.97;2.83;;;;;;;;;;5053061;28;20021;-66
2021/10/19 10:40:34;;;;;;;6.32;2.70;;;;;;;;;;5050895;28;20029;-66
2021/10/19 10:43:21;;;;;;;6.50;3.55;;;;;;;;;;5052926;28;20021;-66
2021/10/19 10:45:48;;;;;;;5.72;2.97;;;;;;;;;;5052978;28;20104;-66
2021/10/19 10:48:15;;;;;;;5.75;2.67;;;;;;;;;;5053152;28;20032;-66
2021/10/19 10:50:41;;;;;;;6.88;3.08;;;;;;;;;;5052808;28;20473;-66
2021/10/19 10:53:09;;;;;;;6.03;2.95;;;;;;;;;;5052841;28;20150;-66
2021/10/19 10:55:39;;;;;;;5.85;2.97;;;;;;;;;;5051984;28;20384;-66
2021/10/19 10:58:05;;;;;;;9.02;3.20;;;;;;;;;;5052701;28;20103;-66
2021/10/19 11:00:32;;;;;;;6.70;2.83;;;;;;;;;;5052488;28;20151;-64
2021/10/19 11:03:08;;;;;;;7.45;2.58;;;;;;;;;;5052615;28;20029;-65
2021/10/19 11:05:36;;;;;;;5.55;2.92;;;;;;;;;;5052657;28;20033;-64
2021/10/19 11:08:02;;;;;;;6.15;3.10;;;;;;;;;;5051173;28;20112;-66
2021/10/19 11:10:28;;;;;;;4.47;2.53;;;;;;;;;;5052410;28;20036;-66
2021/10/19 11:13:01;;;;;;;5.63;2.80;;;;;;;;;;5052595;28;20096;-65
2021/10/19 11:15:28;;;;;;;7.10;3.00;;;;;;;;;;5051082;28;20495;-65
2021/10/19 11:17:56;;;;;;;121.32;9.07;;;;;;;;;;5052342;28;20021;-66
2021/10/19 11:20:23;;;;;;;22.20;3.60;;;;;;;;;;5052201;28;20032;-65
2021/10/19 11:22:50;;;;;;;14.18;3.13;;;;;;;;;;5052230;28;20014;-65
2021/10/19 11:25:16;;;;;;;10.35;2.60;;;;;;;;;;5051984;28;20053;-65
2021/10/19 11:27:43;;;;;;;6.95;2.35;;;;;;;;;;5052175;28;20108;-65
2021/10/19 11:30:10;;;;;;;9.77;2.70;;;;;;;;;;5051958;28;20450;-67
2021/10/19 11:32:36;;;;;;;10.52;2.60;;;;;;;;;;5052070;28;20413;-67
2021/10/19 11:35:03;;;;;;;6.43;2.85;;;;;;;;;;5052006;28;20025;-65
2021/10/19 11:37:29;;;;;;;7.95;3.00;;;;;;;;;;5051842;28;20029;-63
2021/10/19 11:40:03;;;;;;;25.92;3.60;;;;;;;;;;5052046;28;20033;-65
2021/10/19 11:42:29;;;;;;;4.68;2.60;;;;;;;;;;5051888;28;20486;-64
2021/10/19 11:44:56;;;;;;;7.55;2.75;;;;;;;;;;5051924;28;20036;-64
2021/10/19 11:47:22;;;;;;;13.57;2.50;;;;;;;;;;5050404;28;20025;-65
2021/10/19 11:49:48;;;;;;;13.85;3.47;;;;;;;;;;5051728;28;20049;-67
2021/10/19 11:52:14;;;;;;;14.63;3.83;;;;;;;;;;5034169;28;20389;-67
2021/10/19 11:54:40;;;;;;;11.05;3.15;;;;;;;;;;5032006;28;20469;-67
2021/10/19 11:57:10;;;;;;;5.40;2.33;;;;;;;;;;5031790;28;20080;-65
2021/10/19 11:59:40;;;;;;;6.18;2.58;;;;;;;;;;5031629;28;20018;-65
2021/10/19 12:02:07;;;;;;;6.43;2.65;;;;;;;;;;5031856;28;20405;-68
2021/10/19 12:04:38;;;;;;;6.13;2.50;;;;;;;;;;5031839;28;20017;-64
2021/10/19 12:07:04;;;;;;;8.68;3.72;;;;;;;;;;5035621;28;20033;-64
2021/10/19 12:09:30;;;;;;;9.32;3.80;;;;;;;;;;5035765;28;20533;-67
2021/10/19 12:12:01;;;;;;;8.90;4.20;;;;;;;;;;5035874;28;20018;-65
2021/10/19 12:14:29;;;;;;;6.65;2.88;;;;;;;;;;5035904;28;20492;-66
2021/10/19 12:16:56;;;;;;;7.47;3.35;;;;;;;;;;5034469;28;20546;-65
2021/10/19 12:19:23;;;;;;;9.60;2.60;;;;;;;;;;5035543;28;20096;-65
2021/10/19 12:21:53;;;;;;;8.30;3.17;;;;;;;;;;5035809;28;20056;-64
2021/10/19 12:24:20;;;;;;;8.00;3.05;;;;;;;;;;5042872;28;20021;-67
2021/10/19 12:26:46;;;;;;;9.32;3.10;;;;;;;;;;5055232;28;20021;-63
2021/10/19 12:29:13;;;;;;;10.27;3.08;;;;;;;;;;5054994;28;20028;-64
2021/10/19 12:31:43;;;;;;;9.77;3.15;;;;;;;;;;5055302;28;20480;-66
2021/10/19 12:34:11;;;;;;;11.68;3.33;;;;;;;;;;5055506;28;20046;-64
2021/10/19 12:36:39;;;;;;;8.95;3.50;;;;;;;;;;5055417;28;20021;-64
2021/10/19 12:39:13;;;;;;;7.35;3.75;;;;;;;;;;5055348;28;20039;-64
2021/10/19 12:41:40;;;;;;;5.90;3.10;;;;;;;;;;5055428;28;20021;-63
2021/10/19 12:44:10;;;;;;;6.63;3.25;;;;;;;;;;5055414;28;20029;-65
2021/10/19 12:46:36;;;;;;;6.10;3.30;;;;;;;;;;5047550;28;20022;-65
2021/10/19 12:49:05;;;;;;;6.82;3.13;;;;;;;;;;5033835;28;20393;-65
2021/10/19 12:51:31;;;;;;;7.30;3.22;;;;;;;;;;5035255;28;20602;-67
2021/10/19 12:53:57;;;;;;;6.25;2.70;;;;;;;;;;5035028;28;20025;-65
2021/10/19 12:56:24;;;;;;;7.10;3.28;;;;;;;;;;5035192;28;20026;-63
2021/10/19 12:58:51;;;;;;;10.50;3.92;;;;;;;;;;5043055;28;20032;-64
2021/10/19 13:01:17;;;;;;;7.13;3.00;;;;;;;;;;5055004;28;20079;-67
2021/10/19 13:03:43;;;;;;;10.00;3.70;;;;;;;;;;5054865;28;20021;-64
2021/10/19 13:06:09;;;;;;;8.80;3.58;;;;;;;;;;5054942;28;20063;-66
2021/10/19 13:08:39;;;;;;;5.90;3.38;;;;;;;;;;5054856;28;20023;-64
2021/10/19 13:11:05;;;;;;;9.18;3.22;;;;;;;;;;5054719;28;20045;-65
2021/10/19 13:13:32;;;;;;;7.47;3.25;;;;;;;;;;5054702;28;20020;-68
2021/10/19 13:15:58;;;;;;;5.45;3.33;;;;;;;;;;5054349;28;20033;-66
2021/10/19 13:18:24;;;;;;;5.32;2.67;;;;;;;;;;5053751;28;20104;-65
2021/10/19 13:20:50;;;;;;;6.43;2.92;;;;;;;;;;5054525;28;20055;-65
2021/10/19 13:23:17;;;;;;;6.78;3.22;;;;;;;;;;5054574;28;20020;-66
2021/10/19 13:25:43;;;;;;;6.75;2.78;;;;;;;;;;5054568;28;20013;-67
2021/10/19 13:28:10;;;;;;;4.25;2.10;;;;;;;;;;5054518;28;20163;-68
2021/10/19 13:30:37;;;;;;;7.85;3.33;;;;;;;;;;5054639;28;20075;-67
2021/10/19 13:33:03;;;;;;;6.35;3.40;;;;;;;;;;5039034;28;20029;-65
2021/10/19 13:35:29;;;;;;;7.78;3.00;;;;;;;;;;5054314;28;20056;-64
2021/10/19 13:37:55;;;;;;;8.32;3.25;;;;;;;;;;5046665;28;20018;-64
2021/10/19 13:40:21;;;;;;;6.32;2.78;;;;;;;;;;5032809;28;20025;-64
2021/10/19 13:42:47;;;;;;;5.63;2.65;;;;;;;;;;5034707;28;20024;-65
2021/10/19 13:45:14;;;;;;;7.43;3.03;;;;;;;;;;5032512;28;20413;-64
2021/10/19 13:47:41;;;;;;;6.60;2.80;;;;;;;;;;5033797;28;20140;-65
2021/10/19 13:50:08;;;;;;;5.00;2.35;;;;;;;;;;5039681;28;20128;-64
2021/10/19 13:52:35;;;;;;;7.18;3.03;;;;;;;;;;5052336;28;20028;-66
2021/10/19 13:55:01;;;;;;;5.80;2.58;;;;;;;;;;5051023;28;20032;-65
2021/10/19 13:57:27;;;;;;;6.15;2.70;;;;;;;;;;5052490;28;20107;-65
2021/10/19 13:59:54;;;;;;;6.70;2.90;;;;;;;;;;5053414;28;20039;-65
2021/10/19 14:02:20;;;;;;;7.95;2.67;;;;;;;;;;5053966;28;20028;-65
2021/10/19 14:04:46;;;;;;;6.88;3.08;;;;;;;;;;5053810;28;20401;-65
2021/10/19 14:07:12;;;;;;;7.95;3.20;;;;;;;;;;5052522;28;20017;-65
2021/10/19 14:09:38;;;;;;;6.72;3.20;;;;;;;;;;5053668;28;20104;-68
2021/10/19 14:12:05;;;;;;;12.10;3.17;;;;;;;;;;5053670;28;20061;-67
2021/10/19 14:14:31;;;;;;;6.82;3.25;;;;;;;;;;5053943;28;20555;-67
2021/10/19 14:16:57;;;;;;;5.90;3.42;;;;;;;;;;5053673;28;20021;-65
2021/10/19 14:19:23;;;;;;;6.22;3.25;;;;;;;;;;5053538;28;20032;-67
2021/10/19 14:21:51;;;;;;;6.28;3.03;;;;;;;;;;5053311;28;20052;-67
2021/10/19 14:24:17;;;;;;;7.20;3.30;;;;;;;;;;5053038;28;20063;-67
2021/10/19 14:26:43;;;;;;;5.90;3.08;;;;;;;;;;5053436;28;20442;-68
2021/10/19 14:29:09;;;;;;;7.05;2.80;;;;;;;;;;5052392;28;20030;-65
2021/10/19 14:31:36;;;;;;;7.18;3.70;;;;;;;;;;5053286;28;20091;-65
2021/10/19 14:34:02;;;;;;;10.30;3.50;;;;;;;;;;5053142;28;20044;-65
2021/10/19 14:36:28;;;;;;;5.80;3.38;;;;;;;;;;5053147;28;20028;-67
2021/10/19 14:38:54;;;;;;;6.47;2.78;;;;;;;;;;5053044;28;20027;-65
2021/10/19 14:41:20;;;;;;;9.73;3.05;;;;;;;;;;5052106;28;20383;-66